Time;durP1;ratioP1;P1;durP2;ratioP2;P2;SDS_P1;SDS_P2;PMS_P1;PMS_P2;Temp;Humidity;BMP_temperature;BMP_pressure;BME280_temperature;BME280_humidity;BME280_pressure;Samples;Min_cycle;Max_cycle;Signal;HPM_P1;HPM_P2
2022/05/29 00:02:17;;;;;;;0.00;0.00;;;9.50;99.90;226.50;231333.00;;;;5071381;28;20210;-69
2022/05/29 00:04:46;;;;;;;0.10;0.10;;;9.40;99.90;226.50;231333.00;;;;5064774;28;20201;-69
2022/05/29 00:07:19;;;;;;;0.10;0.10;;;9.40;99.90;226.50;231333.00;;;;5068423;28;20208;-69
2022/05/29 00:09:52;;;;;;;0.10;0.10;;;9.50;99.90;226.50;231333.00;;;;5073181;28;20217;-70
2022/05/29 00:12:23;;;;;;;0.10;0.10;;;9.50;99.90;226.50;231333.00;;;;5064934;28;20198;-69
2022/05/29 00:14:52;;;;;;;0.10;0.10;;;9.50;99.90;226.50;231333.00;;;;5073695;28;20185;-69
2022/05/29 00:17:21;;;;;;;0.10;0.10;;;9.50;99.90;226.50;231333.00;;;;5080595;28;20198;-70
2022/05/29 00:19:49;;;;;;;0.10;0.10;;;9.40;99.90;226.50;231333.00;;;;5072798;28;20279;-70
2022/05/29 00:22:20;;;;;;;0.10;0.10;;;9.30;99.90;226.50;231333.00;;;;5072878;28;20198;-70
2022/05/29 00:24:51;;;;;;;0.10;0.10;;;9.30;99.90;226.50;231333.00;;;;5072437;28;20635;-70
2022/05/29 00:27:20;;;;;;;0.10;0.10;;;9.20;99.90;226.50;231333.00;;;;5070084;28;20243;-70
2022/05/29 00:29:49;;;;;;;0.10;0.10;;;9.20;99.90;226.50;231333.00;;;;5085232;28;20206;-70
2022/05/29 00:32:18;;;;;;;0.10;0.10;;;9.30;99.90;226.50;231333.00;;;;5072748;28;20189;-70
2022/05/29 00:34:46;;;;;;;0.10;0.10;;;9.20;99.90;226.50;231333.00;;;;5072602;28;20210;-70
2022/05/29 00:37:15;;;;;;;0.10;0.10;;;9.10;99.90;226.50;231333.00;;;;5066471;28;20194;-69
2022/05/29 00:39:43;;;;;;;0.10;0.10;;;9.10;99.90;226.50;231333.00;;;;5081357;28;20590;-70
2022/05/29 00:42:16;;;;;;;0.10;0.10;;;9.00;99.90;226.50;231333.00;;;;5065939;28;20198;-70
2022/05/29 00:44:44;;;;;;;0.10;0.10;;;9.00;99.90;226.50;231333.00;;;;5062532;28;20300;-70
2022/05/29 00:47:15;;;;;;;0.10;0.10;;;9.00;99.90;226.50;231333.00;;;;5065705;28;20741;-70
2022/05/29 00:49:47;;;;;;;0.10;0.10;;;9.20;99.90;226.50;231333.00;;;;5082152;28;20221;-70
2022/05/29 00:52:19;;;;;;;0.10;0.10;;;9.10;99.90;226.50;231333.00;;;;5071790;28;20473;-69
2022/05/29 00:54:54;;;;;;;0.10;0.10;;;9.00;99.90;226.50;231333.00;;;;5067104;28;20198;-70
2022/05/29 00:57:29;;;;;;;0.10;0.10;;;9.00;99.90;226.50;231333.00;;;;5067532;28;20196;-69
2022/05/29 01:00:04;;;;;;;0.10;0.10;;;8.90;99.90;226.50;231333.00;;;;5070553;28;20217;-69
2022/05/29 01:02:33;;;;;;;0.10;0.10;;;8.90;99.90;226.50;231333.00;;;;5063689;28;20217;-69
2022/05/29 01:05:06;;;;;;;0.10;0.10;;;8.80;99.90;226.50;231333.00;;;;5065189;28;20241;-70
2022/05/29 01:07:37;;;;;;;0.10;0.10;;;8.90;99.90;226.50;231333.00;;;;5071711;28;20197;-69
2022/05/29 01:10:08;;;;;;;0.10;0.10;;;8.90;99.90;226.50;231333.00;;;;5050720;28;20221;-70
2022/05/29 01:12:48;;;;;;;0.10;0.10;;;8.80;99.90;226.50;231333.00;;;;5075261;28;20606;-69
2022/05/29 01:15:30;;;;;;;0.10;0.10;;;8.70;99.90;226.50;231333.00;;;;5073047;28;20284;-70
2022/05/29 01:18:12;;;;;;;0.10;0.10;;;8.70;99.90;226.50;231333.00;;;;5059572;28;20198;-70
2022/05/29 01:21:14;;;;;;;0.10;0.10;;;8.70;99.90;226.50;231333.00;;;;5064426;28;20197;-69
2022/05/29 01:24:19;;;;;;;0.10;0.10;;;8.70;99.90;226.50;231333.00;;;;5061315;28;20305;-70
2022/05/29 01:27:15;;;;;;;0.10;0.10;;;8.60;99.90;226.50;231333.00;;;;5069452;28;20571;-70
2022/05/29 01:30:01;;;;;;;0.10;0.10;;;8.80;99.90;226.50;231333.00;;;;5054077;28;20218;-70
2022/05/29 01:32:42;;;;;;;0.05;0.05;;;8.80;99.90;226.50;231333.00;;;;5074478;28;20283;-71
2022/05/29 01:35:17;;;;;;;0.10;0.10;;;8.70;99.90;226.50;231333.00;;;;5077183;28;20740;-70
2022/05/29 01:37:54;;;;;;;0.10;0.10;;;8.70;99.90;226.50;231333.00;;;;5065197;28;20196;-69
2022/05/29 01:40:37;;;;;;;0.10;0.10;;;8.60;99.90;226.50;231333.00;;;;5070749;28;20271;-70
2022/05/29 01:43:19;;;;;;;0.10;0.10;;;8.60;99.90;226.50;231333.00;;;;5068721;28;20181;-70
2022/05/29 01:45:58;;;;;;;0.10;0.10;;;8.50;99.90;226.50;231333.00;;;;5066081;28;20196;-70
2022/05/29 01:48:47;;;;;;;0.10;0.10;;;8.70;99.90;226.50;231333.00;;;;5077771;28;20220;-70
2022/05/29 01:51:21;;;;;;;0.10;0.10;;;8.70;99.90;226.50;231333.00;;;;5063200;28;20213;-70
2022/05/29 01:53:59;;;;;;;0.10;0.10;;;8.70;99.90;226.50;231333.00;;;;5062743;28;20275;-70
2022/05/29 01:56:33;;;;;;;0.10;0.10;;;8.60;99.90;226.50;231333.00;;;;5070480;28;20201;-69
2022/05/29 01:59:09;;;;;;;0.10;0.10;;;8.50;99.90;226.50;231333.00;;;;5078173;28;20273;-70
2022/05/29 02:01:48;;;;;;;0.10;0.10;;;8.50;99.90;226.50;231333.00;;;;5071300;28;20201;-70
2022/05/29 02:04:24;;;;;;;0.10;0.10;;;8.40;99.90;226.50;231333.00;;;;5067210;28;20233;-70
2022/05/29 02:09:49;;;;;;;0.08;0.08;;;8.20;99.90;226.50;231333.00;;;;5071087;28;20419;-69
2022/05/29 02:12:25;;;;;;;0.10;0.10;;;8.20;99.90;226.50;231333.00;;;;5069385;28;20200;-69
2022/05/29 02:15:03;;;;;;;0.10;0.10;;;8.20;99.90;226.50;231333.00;;;;5070109;28;20202;-70
2022/05/29 02:17:42;;;;;;;0.10;0.10;;;8.30;99.90;226.50;231333.00;;;;5067478;28;20201;-70
2022/05/29 02:20:18;;;;;;;0.10;0.10;;;8.30;99.90;226.50;231333.00;;;;5070883;28;20733;-69
2022/05/29 02:22:52;;;;;;;0.10;0.10;;;8.20;99.90;226.50;231333.00;;;;5082536;28;20200;-71
2022/05/29 02:25:26;;;;;;;0.10;0.10;;;8.40;99.90;226.50;231333.00;;;;5078470;28;20214;-71
2022/05/29 02:28:00;;;;;;;0.10;0.10;;;8.40;99.90;226.50;231333.00;;;;5075043;28;20197;-70
2022/05/29 02:30:39;;;;;;;0.10;0.10;;;8.40;99.90;226.50;231333.00;;;;5063911;28;20225;-71
2022/05/29 02:33:18;;;;;;;0.10;0.10;;;8.40;99.90;226.50;231333.00;;;;5063476;28;20198;-71
2022/05/29 02:36:19;;;;;;;0.10;0.10;;;8.40;99.90;226.50;231333.00;;;;5070196;28;20219;-71
2022/05/29 02:39:01;;;;;;;0.10;0.10;;;8.30;99.90;226.50;231333.00;;;;5070789;28;20623;-71
2022/05/29 02:41:46;;;;;;;0.10;0.10;;;8.30;99.90;226.50;231333.00;;;;5066980;28;20209;-71
2022/05/29 02:44:40;;;;;;;0.10;0.10;;;8.40;99.90;226.50;231333.00;;;;5064099;28;20218;-70
2022/05/29 02:47:24;;;;;;;0.10;0.10;;;8.30;99.90;226.50;231333.00;;;;5065981;28;20194;-69
2022/05/29 02:50:19;;;;;;;0.10;0.10;;;8.20;99.90;226.50;231333.00;;;;5061443;28;20226;-70
2022/05/29 02:52:52;;;;;;;0.10;0.10;;;8.10;99.90;226.50;231333.00;;;;5068691;28;20202;-69
2022/05/29 02:55:22;;;;;;;0.10;0.10;;;8.20;99.90;226.50;231333.00;;;;5073873;28;20202;-69
2022/05/29 02:57:54;;;;;;;0.10;0.10;;;8.20;99.90;226.50;231333.00;;;;5070353;28;20197;-70
2022/05/29 03:00:23;;;;;;;0.05;0.05;;;8.20;99.90;226.50;231333.00;;;;5074559;28;20693;-69
2022/05/29 03:03:10;;;;;;;0.10;0.10;;;8.20;99.90;226.50;231333.00;;;;5066836;28;20720;-70
2022/05/29 03:06:01;;;;;;;0.10;0.10;;;8.20;99.90;226.50;231333.00;;;;5069760;28;20320;-70
2022/05/29 03:08:47;;;;;;;0.10;0.10;;;8.20;99.90;226.50;231333.00;;;;5066233;28;20275;-70
2022/05/29 03:11:33;;;;;;;0.10;0.10;;;8.10;99.90;226.50;231333.00;;;;5071345;28;20209;-70
2022/05/29 03:14:10;;;;;;;0.10;0.10;;;8.10;99.90;226.50;231333.00;;;;5077677;28;20232;-70
2022/05/29 03:16:53;;;;;;;0.10;0.10;;;8.10;99.90;226.50;231333.00;;;;5072630;28;20651;-70
2022/05/29 03:19:39;;;;;;;0.00;0.00;;;8.20;99.90;226.50;231333.00;;;;5055120;28;20237;-70
2022/05/29 03:22:21;;;;;;;0.00;0.00;;;8.20;99.90;226.50;231333.00;;;;5062876;28;20726;-70
2022/05/29 03:25:01;;;;;;;0.10;0.10;;;8.20;99.90;226.50;231333.00;;;;5061659;28;20267;-70
2022/05/29 03:27:37;;;;;;;0.10;0.10;;;8.20;99.90;226.50;231333.00;;;;5073188;28;20216;-70
2022/05/29 03:30:15;;;;;;;0.10;0.10;;;8.10;99.90;226.50;231333.00;;;;5079786;28;20205;-70
2022/05/29 03:32:44;;;;;;;0.10;0.10;;;8.10;99.90;226.50;231333.00;;;;5073879;28;20198;-70
2022/05/29 03:35:20;;;;;;;0.10;0.10;;;8.10;99.90;226.50;231333.00;;;;5073135;28;20698;-71
2022/05/29 03:37:50;;;;;;;0.00;0.00;;;8.00;99.90;226.50;231333.00;;;;5075748;28;20254;-70
2022/05/29 03:40:20;;;;;;;0.10;0.10;;;7.90;99.90;226.50;231333.00;;;;5068705;28;20267;-71
2022/05/29 03:42:49;;;;;;;0.10;0.10;;;7.90;99.90;226.50;231333.00;;;;5069748;28;20240;-71
2022/05/29 03:45:17;;;;;;;0.10;0.10;;;7.90;99.90;226.50;231333.00;;;;5072882;28;20252;-70
2022/05/29 03:47:46;;;;;;;0.10;0.10;;;7.90;99.90;226.50;231333.00;;;;5073029;28;20533;-69
2022/05/29 03:50:19;;;;;;;0.10;0.10;;;7.90;99.90;226.50;231333.00;;;;5072941;28;20707;-69
2022/05/29 03:52:49;;;;;;;0.10;0.10;;;7.90;99.90;226.50;231333.00;;;;5072584;28;20643;-70
2022/05/29 03:55:21;;;;;;;0.10;0.10;;;7.90;99.90;226.50;231333.00;;;;5073325;28;20247;-70
2022/05/29 03:57:50;;;;;;;0.10;0.10;;;8.00;99.90;226.50;231333.00;;;;5072813;28;20194;-69
2022/05/29 04:00:21;;;;;;;0.10;0.10;;;7.90;99.90;226.50;231333.00;;;;5070087;28;20218;-69
2022/05/29 04:02:51;;;;;;;0.10;0.10;;;7.90;99.90;226.50;231333.00;;;;5072160;28;20197;-69
2022/05/29 04:05:22;;;;;;;0.10;0.10;;;7.70;99.90;226.50;231333.00;;;;5072547;28;20224;-69
2022/05/29 04:13:31;;;;;;;0.10;0.10;;;7.70;99.90;226.50;231333.00;;;;5072811;28;20205;-70
2022/05/29 04:15:59;;;;;;;0.10;0.10;;;7.70;99.90;226.50;231333.00;;;;5076591;28;20197;-69
2022/05/29 04:18:28;;;;;;;0.10;0.10;;;7.70;99.90;226.50;231333.00;;;;5073171;28;20245;-70
2022/05/29 04:20:56;;;;;;;0.10;0.10;;;7.70;99.90;226.50;231333.00;;;;5072512;28;20681;-71
2022/05/29 04:23:26;;;;;;;0.10;0.10;;;7.80;99.90;226.50;231333.00;;;;5056195;28;20260;-70
2022/05/29 04:25:54;;;;;;;0.10;0.10;;;7.80;99.90;226.50;231333.00;;;;5066176;28;20279;-70
2022/05/29 04:28:23;;;;;;;0.00;0.00;;;7.80;99.90;226.50;231333.00;;;;5062038;28;20548;-69
2022/05/29 04:30:51;;;;;;;0.10;0.10;;;7.80;99.90;226.50;231333.00;;;;5072979;28;20197;-70
2022/05/29 04:33:19;;;;;;;0.10;0.10;;;7.60;99.90;226.50;231333.00;;;;5087356;28;20442;-70
2022/05/29 04:35:52;;;;;;;0.10;0.10;;;7.50;99.90;226.50;231333.00;;;;5071051;28;20213;-70
2022/05/29 04:38:24;;;;;;;0.10;0.10;;;7.40;99.90;226.50;231333.00;;;;5064444;28;20216;-70
2022/05/29 04:40:53;;;;;;;0.10;0.10;;;7.40;99.90;226.50;231333.00;;;;5071717;28;20193;-69
2022/05/29 04:43:22;;;;;;;0.10;0.10;;;7.50;99.90;226.50;231333.00;;;;5072527;28;20201;-69
2022/05/29 04:45:55;;;;;;;0.10;0.10;;;7.40;99.90;226.50;231333.00;;;;5071667;28;20614;-70
2022/05/29 04:48:25;;;;;;;0.10;0.10;;;7.50;99.90;226.50;231333.00;;;;5065753;28;20255;-69
2022/05/29 04:50:57;;;;;;;0.00;0.00;;;7.50;99.90;226.50;231333.00;;;;5078700;28;20655;-69
2022/05/29 04:53:27;;;;;;;0.10;0.10;;;7.50;99.90;226.50;231333.00;;;;5069400;28;20192;-70
2022/05/29 04:55:59;;;;;;;0.00;0.00;;;7.70;99.90;226.50;231333.00;;;;5068974;28;20201;-71
2022/05/29 04:58:29;;;;;;;0.10;0.10;;;7.80;99.90;226.50;231333.00;;;;5072397;28;20233;-70
2022/05/29 05:00:58;;;;;;;0.10;0.10;;;7.70;99.90;226.50;231333.00;;;;5071241;28;20193;-70
2022/05/29 05:03:27;;;;;;;0.10;0.10;;;7.90;99.90;226.50;231333.00;;;;5072049;28;20225;-70
2022/05/29 05:05:55;;;;;;;0.10;0.10;;;8.00;99.90;226.50;231333.00;;;;5070724;28;20638;-70
2022/05/29 05:08:24;;;;;;;0.10;0.10;;;8.10;99.90;226.50;231333.00;;;;5074897;28;20600;-70
2022/05/29 05:10:52;;;;;;;0.10;0.10;;;8.30;99.90;226.50;231333.00;;;;5074291;28;20841;-70
2022/05/29 05:13:22;;;;;;;0.10;0.10;;;8.30;99.90;226.50;231333.00;;;;5072409;28;20201;-70
2022/05/29 05:15:51;;;;;;;0.10;0.10;;;8.40;99.90;226.50;231333.00;;;;5069319;28;20545;-70
2022/05/29 05:18:19;;;;;;;0.10;0.10;;;8.50;99.90;226.50;231333.00;;;;5069014;28;20453;-69
2022/05/29 05:20:47;;;;;;;0.10;0.10;;;8.50;99.90;226.50;231333.00;;;;5077301;28;20220;-70
2022/05/29 05:23:15;;;;;;;0.10;0.10;;;8.60;99.90;226.50;231333.00;;;;5060293;28;20542;-70
2022/05/29 05:25:43;;;;;;;0.10;0.10;;;8.50;99.90;226.50;231333.00;;;;5068021;28;20224;-70
2022/05/29 05:28:12;;;;;;;0.10;0.10;;;8.60;99.90;226.50;231333.00;;;;5071246;28;20193;-70
2022/05/29 05:30:41;;;;;;;0.10;0.10;;;8.70;99.90;226.50;231333.00;;;;5072124;28;20231;-70
2022/05/29 05:33:10;;;;;;;0.03;0.03;;;8.80;99.90;226.50;231333.00;;;;5066350;28;20252;-71
2022/05/29 05:35:38;;;;;;;0.10;0.10;;;8.90;99.90;226.50;231333.00;;;;5066855;28;20197;-70
2022/05/29 05:38:07;;;;;;;0.10;0.10;;;9.00;99.90;226.50;231333.00;;;;5062009;28;20249;-71
2022/05/29 05:40:35;;;;;;;0.10;0.10;;;9.10;99.90;226.50;231333.00;;;;5070222;28;20671;-70
2022/05/29 05:43:04;;;;;;;0.10;0.10;;;9.10;99.90;226.50;231333.00;;;;5071369;28;20476;-70
2022/05/29 05:45:32;;;;;;;0.03;0.03;;;9.20;99.90;226.50;231333.00;;;;5073059;28;20199;-70
2022/05/29 05:48:02;;;;;;;0.10;0.10;;;9.30;99.90;226.50;231333.00;;;;5069238;28;20213;-70
2022/05/29 05:50:31;;;;;;;0.10;0.10;;;9.30;99.90;226.50;231333.00;;;;5071400;28;20236;-70
2022/05/29 05:52:59;;;;;;;0.10;0.10;;;9.30;99.90;226.50;231333.00;;;;5072417;28;20227;-70
2022/05/29 05:55:28;;;;;;;0.10;0.10;;;9.50;99.90;226.50;231333.00;;;;5071443;28;20255;-71
2022/05/29 05:57:56;;;;;;;0.00;0.00;;;9.50;99.90;226.50;231333.00;;;;5059637;28;20660;-69
2022/05/29 06:00:25;;;;;;;0.10;0.10;;;9.50;99.90;226.50;231333.00;;;;5071666;28;20224;-70
2022/05/29 06:02:53;;;;;;;0.10;0.10;;;9.60;99.90;226.50;231333.00;;;;5068676;28;20247;-69
2022/05/29 06:05:24;;;;;;;0.10;0.10;;;9.80;99.90;226.50;231333.00;;;;5071231;28;20212;-70
2022/05/29 06:07:52;;;;;;;0.10;0.10;;;9.90;99.90;226.50;231333.00;;;;5068946;28;20185;-70
2022/05/29 06:10:20;;;;;;;0.10;0.10;;;10.20;99.90;226.50;231333.00;;;;5063742;28;20214;-70
2022/05/29 06:12:49;;;;;;;0.10;0.10;;;10.30;99.90;226.50;231333.00;;;;5072067;28;20371;-72
2022/05/29 06:15:18;;;;;;;0.10;0.10;;;10.50;99.90;226.50;231333.00;;;;5075192;28;20205;-70
2022/05/29 06:17:47;;;;;;;0.05;0.05;;;10.40;99.90;226.50;231333.00;;;;5068296;28;20202;-71
2022/05/29 06:20:15;;;;;;;0.10;0.10;;;10.40;99.90;226.50;231333.00;;;;5069256;28;20233;-71
2022/05/29 06:22:45;;;;;;;0.10;0.10;;;10.40;99.90;226.50;231333.00;;;;5071363;28;20197;-69
2022/05/29 06:25:13;;;;;;;0.10;0.10;;;10.60;99.90;226.50;231333.00;;;;5066745;28;20539;-70
2022/05/29 06:27:44;;;;;;;0.00;0.00;;;10.50;99.90;226.50;231333.00;;;;5070627;28;20635;-70
2022/05/29 06:30:17;;;;;;;0.10;0.10;;;10.60;99.90;226.50;231333.00;;;;5060752;28;20213;-70
2022/05/29 06:32:45;;;;;;;0.10;0.10;;;10.80;99.90;226.50;231333.00;;;;5070754;28;20194;-70
2022/05/29 06:35:16;;;;;;;0.10;0.10;;;11.00;99.90;226.50;231333.00;;;;5074615;28;20662;-70
2022/05/29 06:37:46;;;;;;;0.10;0.10;;;11.00;99.90;226.50;231333.00;;;;5072306;28;20197;-70
2022/05/29 06:40:15;;;;;;;0.10;0.10;;;11.20;99.90;226.50;231333.00;;;;5074418;28;20214;-71
2022/05/29 06:42:44;;;;;;;0.10;0.10;;;11.30;99.90;226.50;231333.00;;;;5070864;28;20193;-70
2022/05/29 06:45:13;;;;;;;0.10;0.10;;;11.30;99.90;226.50;231333.00;;;;5074574;28;20259;-71
2022/05/29 06:47:42;;;;;;;0.10;0.10;;;11.40;99.90;226.50;231333.00;;;;5072021;28;20221;-70
2022/05/29 06:50:12;;;;;;;0.10;0.10;;;11.50;99.90;226.50;231333.00;;;;5072546;28;20274;-71
2022/05/29 06:52:40;;;;;;;0.10;0.10;;;11.50;99.90;226.50;231333.00;;;;5074195;28;20563;-70
2022/05/29 06:55:11;;;;;;;0.10;0.10;;;11.50;99.90;226.50;231333.00;;;;5075705;28;20683;-71
2022/05/29 06:57:43;;;;;;;0.10;0.10;;;11.70;99.90;226.50;231333.00;;;;5073404;28;20736;-70
2022/05/29 07:08:36;;;;;;;0.10;0.10;;;12.20;99.90;226.50;231333.00;;;;5071566;28;20234;-68
2022/05/29 07:11:10;;;;;;;0.10;0.10;;;12.20;99.90;226.50;231333.00;;;;5076211;28;20198;-68
2022/05/29 07:13:39;;;;;;;0.10;0.10;;;12.30;99.90;226.50;231333.00;;;;5072253;28;20729;-68
2022/05/29 07:16:07;;;;;;;0.00;0.00;;;12.30;99.90;226.50;231333.00;;;;5075581;28;20190;-69
2022/05/29 07:18:36;;;;;;;0.10;0.10;;;12.50;99.90;226.50;231333.00;;;;5063285;28;20225;-68
2022/05/29 07:21:07;;;;;;;0.10;0.10;;;12.60;99.90;226.50;231333.00;;;;5074327;28;20186;-68
2022/05/29 07:23:36;;;;;;;0.03;0.03;;;12.70;99.90;226.50;231333.00;;;;5083827;28;20190;-69
2022/05/29 07:26:06;;;;;;;0.03;0.03;;;12.70;99.90;226.50;231333.00;;;;5079120;28;20194;-68
2022/05/29 07:28:35;;;;;;;0.10;0.10;;;12.80;99.90;226.50;231333.00;;;;5079087;28;20240;-69
2022/05/29 07:31:04;;;;;;;0.10;0.10;;;12.80;99.90;226.50;231333.00;;;;5090132;28;20240;-69
2022/05/29 07:33:32;;;;;;;0.10;0.10;;;12.80;99.90;226.50;231333.00;;;;5072598;28;20236;-70
2022/05/29 07:36:01;;;;;;;0.10;0.10;;;13.10;99.90;226.50;231333.00;;;;5073013;28;20250;-69
2022/05/29 07:38:30;;;;;;;0.10;0.10;;;13.40;99.90;226.50;231333.00;;;;5072873;28;20573;-70
2022/05/29 07:40:59;;;;;;;0.10;0.10;;;13.70;99.90;226.50;231333.00;;;;5081754;28;20589;-72
2022/05/29 07:43:28;;;;;;;0.00;0.00;;;13.90;99.90;226.50;231333.00;;;;5073271;28;20202;-69
2022/05/29 07:45:58;;;;;;;0.10;0.10;;;14.20;99.90;226.50;231333.00;;;;5072250;28;20269;-70
2022/05/29 07:48:30;;;;;;;0.00;0.00;;;14.40;99.90;226.50;231333.00;;;;5073386;28;20579;-70
2022/05/29 07:50:59;;;;;;;0.03;0.03;;;14.60;99.90;226.50;231333.00;;;;5072199;28;20212;-70
2022/05/29 07:53:27;;;;;;;0.10;0.10;;;14.70;99.90;226.50;231333.00;;;;5072093;28;20189;-70
2022/05/29 07:55:56;;;;;;;0.08;0.08;;;14.80;99.90;226.50;231333.00;;;;5073805;28;20224;-70
2022/05/29 07:58:25;;;;;;;0.00;0.00;;;14.90;99.90;226.50;231333.00;;;;5073073;28;20323;-70
2022/05/29 08:00:55;;;;;;;0.00;0.00;;;15.00;99.90;226.50;231333.00;;;;5072925;28;20194;-69
2022/05/29 08:03:23;;;;;;;0.10;0.10;;;15.20;99.90;226.50;231333.00;;;;5073016;28;20251;-70
2022/05/29 08:05:52;;;;;;;0.00;0.00;;;15.20;99.90;226.50;231333.00;;;;5071151;28;20204;-70
2022/05/29 08:08:21;;;;;;;0.00;0.00;;;15.10;99.90;226.50;231333.00;;;;5067352;28;20278;-70
2022/05/29 08:10:50;;;;;;;0.00;0.00;;;15.00;99.90;226.50;231333.00;;;;5073977;28;20282;-70
2022/05/29 08:13:19;;;;;;;0.10;0.10;;;14.80;99.90;226.50;231333.00;;;;5068800;28;20225;-70
2022/05/29 08:15:47;;;;;;;0.00;0.00;;;14.60;99.90;226.50;231333.00;;;;5072631;28;20262;-70
2022/05/29 08:18:18;;;;;;;0.00;0.00;;;14.40;99.90;226.50;231333.00;;;;5064698;28;20739;-70
2022/05/29 08:20:46;;;;;;;0.00;0.00;;;14.50;99.90;226.50;231333.00;;;;5070285;28;20745;-70
2022/05/29 08:23:18;;;;;;;0.00;0.00;;;14.60;99.90;226.50;231333.00;;;;5073061;28;20677;-70
2022/05/29 08:31:19;;;;;;;0.10;0.10;;;14.60;99.90;226.50;231333.00;;;;5069918;28;20194;-69
2022/05/29 08:33:50;;;;;;;0.10;0.10;;;14.60;99.90;226.50;231333.00;;;;5073319;28;20190;-69
2022/05/29 08:36:24;;;;;;;0.08;0.08;;;14.60;99.90;226.50;231333.00;;;;5072496;28;20202;-70
2022/05/29 08:38:56;;;;;;;0.10;0.10;;;14.70;99.90;226.50;231333.00;;;;5071646;28;20305;-71
2022/05/29 08:41:37;;;;;;;0.00;0.00;;;15.00;99.90;226.50;231333.00;;;;5072515;28;20190;-71
2022/05/29 08:44:11;;;;;;;0.00;0.00;;;15.40;99.90;226.50;231333.00;;;;5075952;28;20197;-71
2022/05/29 08:46:43;;;;;;;0.00;0.00;;;15.70;99.20;226.50;231333.00;;;;5055281;28;20530;-71
2022/05/29 08:49:18;;;;;;;0.00;0.00;;;15.40;99.10;226.50;231333.00;;;;5072948;28;20229;-71
2022/05/29 08:52:09;;;;;;;0.10;0.10;;;15.10;99.50;226.50;231333.00;;;;5070133;28;20201;-71
2022/05/29 08:54:51;;;;;;;0.08;0.08;;;15.10;99.40;226.50;231333.00;;;;5069933;28;20205;-71
2022/05/29 08:57:52;;;;;;;0.00;0.00;;;14.90;99.60;226.50;231333.00;;;;5071963;28;20216;-71
2022/05/29 09:00:38;;;;;;;0.00;0.00;;;14.90;99.70;226.50;231333.00;;;;5068944;28;20610;-69
2022/05/29 09:03:47;;;;;;;0.00;0.00;;;14.80;99.60;226.50;231333.00;;;;5057876;28;20204;-71
2022/05/29 09:06:23;;;;;;;0.10;0.10;;;14.40;99.90;226.50;231333.00;;;;5073708;28;20201;-69
2022/05/29 09:09:01;;;;;;;0.00;0.00;;;14.30;99.90;226.50;231333.00;;;;5071952;28;20641;-71
2022/05/29 09:11:35;;;;;;;0.10;0.10;;;14.70;99.90;226.50;231333.00;;;;5072213;28;20186;-72
2022/05/29 09:14:16;;;;;;;0.00;0.00;;;15.10;99.90;226.50;231333.00;;;;5076815;28;20189;-72
2022/05/29 09:16:53;;;;;;;0.10;0.10;;;15.50;99.50;226.50;231333.00;;;;5092060;28;20193;-69
2022/05/29 09:19:38;;;;;;;0.10;0.10;;;15.80;99.10;226.50;231333.00;;;;5078378;28;20236;-69
2022/05/29 09:22:19;;;;;;;0.00;0.00;;;15.80;98.50;226.50;231333.00;;;;5072055;28;20193;-71
2022/05/29 09:25:02;;;;;;;0.00;0.00;;;16.00;98.10;226.50;231333.00;;;;5078445;28;20200;-72
2022/05/29 09:27:31;;;;;;;0.00;0.00;;;16.00;94.60;226.50;231333.00;;;;5082316;28;20642;-70
2022/05/29 09:30:00;;;;;;;0.00;0.00;;;15.90;95.10;226.50;231333.00;;;;5060288;28;20718;-70
2022/05/29 09:32:32;;;;;;;0.00;0.00;;;16.00;95.60;226.50;231333.00;;;;5072221;28;20194;-70
2022/05/29 09:35:11;;;;;;;0.00;0.00;;;16.00;96.40;226.50;231333.00;;;;5073685;28;20193;-70
2022/05/29 09:37:57;;;;;;;0.00;0.00;;;15.90;96.80;226.50;231333.00;;;;5074548;28;20269;-69
2022/05/29 09:40:31;;;;;;;0.00;0.00;;;16.00;96.90;226.50;231333.00;;;;5072044;28;20271;-69
2022/05/29 09:43:17;;;;;;;0.10;0.10;;;16.10;96.60;226.50;231333.00;;;;5073187;28;20189;-69
2022/05/29 09:45:46;;;;;;;0.08;0.08;;;16.20;96.40;226.50;231333.00;;;;5070075;28;20307;-69
2022/05/29 09:51:22;;;;;;;0.00;0.00;;;15.80;95.80;226.50;231333.00;;;;5062859;28;20197;-70
2022/05/29 09:53:57;;;;;;;0.00;0.00;;;15.80;96.30;226.50;231333.00;;;;5072951;28;20261;-70
2022/05/29 09:56:32;;;;;;;0.00;0.00;;;16.00;95.80;226.50;231333.00;;;;5097487;28;20275;-70
2022/05/29 09:59:06;;;;;;;0.00;0.00;;;16.30;95.20;226.50;231333.00;;;;5084767;28;20223;-69
2022/05/29 10:01:42;;;;;;;0.00;0.00;;;16.60;94.30;226.50;231333.00;;;;5073369;28;20202;-69
2022/05/29 10:04:16;;;;;;;0.00;0.00;;;16.50;94.00;226.50;231333.00;;;;5073097;28;20197;-69
2022/05/29 10:06:51;;;;;;;0.00;0.00;;;16.20;93.70;226.50;231333.00;;;;5069523;28;20194;-69
2022/05/29 10:09:30;;;;;;;0.00;0.00;;;16.00;94.10;226.50;231333.00;;;;5067815;28;20218;-69
2022/05/29 10:12:16;;;;;;;0.00;0.00;;;15.90;94.10;226.50;231333.00;;;;5077089;28;20250;-69
2022/05/29 10:14:46;;;;;;;0.00;0.00;;;15.90;94.20;226.50;231333.00;;;;5078472;28;20255;-70
2022/05/29 10:17:33;;;;;;;0.00;0.00;;;16.20;94.30;226.50;231333.00;;;;5075862;28;20681;-69
2022/05/29 10:20:30;;;;;;;0.00;0.00;;;16.50;93.40;226.50;231333.00;;;;5069455;28;20635;-69
2022/05/29 10:23:02;;;;;;;0.00;0.00;;;16.70;91.50;226.50;231333.00;;;;5075760;28;20213;-69
2022/05/29 10:25:36;;;;;;;0.00;0.00;;;17.10;90.30;226.50;231333.00;;;;5076408;28;20197;-69
2022/05/29 10:28:14;;;;;;;0.00;0.00;;;17.10;86.00;226.50;231333.00;;;;5075506;28;20619;-69
2022/05/29 10:30:51;;;;;;;0.00;0.00;;;17.00;80.10;226.50;231333.00;;;;5072443;28;20197;-69
2022/05/29 10:33:23;;;;;;;0.00;0.00;;;17.00;96.50;226.50;231333.00;;;;5072707;28;20272;-69
2022/05/29 10:35:59;;;;;;;0.00;0.00;;;16.70;1.00;226.50;231333.00;;;;5073408;28;20250;-69
2022/05/29 10:38:30;;;;;;;0.00;0.00;;;16.30;99.90;226.50;231333.00;;;;5076224;28;20216;-69
2022/05/29 10:41:03;;;;;;;0.00;0.00;;;16.10;99.90;226.50;231333.00;;;;5075313;28;20247;-68
2022/05/29 10:43:44;;;;;;;0.00;0.00;;;16.30;1.00;226.50;231333.00;;;;5077464;28;20206;-69
2022/05/29 10:46:18;;;;;;;0.10;0.10;;;16.50;99.90;226.50;231333.00;;;;5077801;28;20201;-69
2022/05/29 10:49:16;;;;;;;0.00;0.00;;;16.60;99.90;226.50;231333.00;;;;5079499;28;20647;-69
2022/05/29 10:52:20;;;;;;;0.00;0.00;;;17.10;1.00;226.50;231333.00;;;;5075706;28;20557;-69
2022/05/29 10:55:20;;;;;;;0.00;0.00;;;17.30;99.90;226.50;231333.00;;;;5075811;28;20189;-69
2022/05/29 10:58:20;;;;;;;0.00;0.00;;;17.10;99.90;226.50;231333.00;;;;5080064;28;20197;-69
2022/05/29 11:03:17;;;;;;;0.00;0.00;;;17.50;65.40;226.50;231333.00;;;;5064483;28;20206;-69
2022/05/29 11:04:21;;;;;;;0.00;0.00;;;18.10;67.30;226.50;231333.00;;;;5082789;28;20200;-69
2022/05/29 11:07:27;;;;;;;0.00;0.00;;;18.60;99.90;226.50;231333.00;;;;5067280;28;20201;-69
2022/05/29 11:10:27;;;;;;;0.00;0.00;;;19.30;99.90;226.50;231333.00;;;;5073593;28;20236;-69
2022/05/29 11:13:20;;;;;;;0.00;0.00;;;18.30;99.90;226.50;231333.00;;;;5072185;28;20236;-69
2022/05/29 11:16:05;;;;;;;0.00;0.00;;;17.40;99.90;226.50;231333.00;;;;5080490;28;20753;-69
2022/05/29 11:18:59;;;;;;;0.00;0.00;;;17.40;99.90;226.50;231333.00;;;;5084846;28;20221;-72
2022/05/29 11:21:45;;;;;;;0.00;0.00;;;17.60;99.90;226.50;231333.00;;;;5060921;28;20260;-69
2022/05/29 11:24:36;;;;;;;0.00;0.00;;;17.90;99.90;226.50;231333.00;;;;5078685;28;20207;-69
2022/05/29 11:27:28;;;;;;;0.00;0.00;;;18.20;1.00;226.50;231333.00;;;;5090046;28;20667;-69
2022/05/29 11:30:07;;;;;;;0.00;0.00;;;18.60;1.00;226.50;231333.00;;;;5075332;28;20225;-69
2022/05/29 11:33:00;;;;;;;0.00;0.00;;;18.80;1.00;226.50;231333.00;;;;5075348;28;20194;-69
2022/05/29 11:36:01;;;;;;;0.00;0.00;;;18.10;99.90;226.50;231333.00;;;;5067556;28;20204;-69
2022/05/29 11:39:18;;;;;;;0.00;0.00;;;18.50;1.00;226.50;231333.00;;;;5074378;28;20266;-68
2022/05/29 11:41:54;;;;;;;0.00;0.00;;;19.10;99.90;226.50;231333.00;;;;5074314;28;20192;-69
2022/05/29 11:44:31;;;;;;;0.00;0.00;;;19.60;1.00;226.50;231333.00;;;;5074928;28;20655;-69
2022/05/29 11:52:59;;;;;;;0.00;0.00;;;19.90;1.00;226.50;231333.00;;;;5082279;28;20209;-69